createdAt,value
2023-04-16T00:01:58.529Z,50.30
2023-04-16T00:04:25.598Z,50.40
2023-04-16T00:06:52.443Z,50.50
2023-04-16T00:09:19.160Z,50.50
2023-04-16T00:11:45.891Z,50.50
2023-04-16T00:14:12.612Z,50.60
2023-04-16T00:16:39.381Z,50.70
2023-04-16T00:19:06.080Z,50.80
2023-04-16T00:21:32.845Z,50.80
2023-04-16T00:23:59.585Z,50.90
2023-04-16T00:26:26.261Z,52.00
2023-04-16T00:28:53.674Z,51.00
2023-04-16T00:31:27.694Z,51.10
2023-04-16T00:33:56.285Z,51.20
2023-04-16T00:36:27.851Z,51.20
2023-04-16T00:38:56.033Z,51.30
2023-04-16T00:41:23.444Z,51.40
2023-04-16T00:43:50.606Z,51.30
2023-04-16T00:46:19.732Z,51.30
2023-04-16T00:48:47.215Z,51.40
2023-04-16T00:51:14.045Z,51.40
2023-04-16T00:53:41.545Z,51.50
2023-04-16T00:56:09.017Z,51.40
2023-04-16T00:58:35.980Z,52.30
2023-04-16T01:01:02.893Z,51.50
2023-04-16T01:03:45.313Z,51.40
2023-04-16T01:06:12.523Z,51.50
2023-04-16T01:08:39.653Z,51.60
2023-04-16T01:11:06.878Z,51.60
2023-04-16T01:13:33.969Z,51.50
2023-04-16T01:16:01.358Z,51.70
2023-04-16T01:18:28.179Z,51.60
2023-04-16T01:20:54.861Z,51.70
2023-04-16T01:23:22.519Z,52.70
2023-04-16T01:25:49.321Z,51.80
2023-04-16T01:28:16.477Z,51.80
2023-04-16T01:30:43.675Z,51.80
2023-04-16T01:33:36.486Z,51.80
2023-04-16T01:36:03.465Z,51.90
2023-04-16T01:38:30.478Z,51.80
2023-04-16T01:40:59.444Z,51.80
2023-04-16T01:43:26.213Z,51.70
2023-04-16T01:45:59.430Z,51.70
2023-04-16T01:48:26.222Z,51.80
2023-04-16T01:50:52.955Z,51.80
2023-04-16T01:53:19.648Z,51.80
2023-04-16T01:55:46.381Z,51.80
2023-04-16T01:58:14.767Z,51.80
2023-04-16T02:00:41.698Z,51.90
2023-04-16T02:03:08.560Z,52.00
2023-04-16T02:05:35.579Z,52.00
2023-04-16T02:08:02.350Z,52.10
2023-04-16T02:10:30.453Z,52.10
2023-04-16T02:12:57.809Z,52.10
2023-04-16T02:15:25.323Z,52.00
2023-04-16T02:17:56.675Z,52.00
2023-04-16T02:20:24.796Z,52.00
2023-04-16T02:22:55.235Z,52.00
2023-04-16T02:25:24.272Z,52.10
2023-04-16T02:27:53.245Z,52.10
2023-04-16T02:30:37.883Z,52.20
2023-04-16T02:33:07.314Z,52.10
2023-04-16T02:35:35.585Z,52.00
2023-04-16T02:38:03.332Z,52.00
2023-04-16T02:40:30.690Z,52.10
2023-04-16T02:42:57.995Z,52.10
2023-04-16T02:45:25.303Z,52.10
2023-04-16T02:47:52.206Z,52.30
2023-04-16T02:50:18.993Z,52.30
2023-04-16T02:52:45.957Z,52.20
2023-04-16T02:55:12.743Z,52.30
2023-04-16T02:57:39.775Z,53.30
2023-04-16T03:00:07.317Z,52.40
2023-04-16T03:02:34.296Z,52.40
2023-04-16T03:05:01.238Z,52.40
2023-04-16T03:07:27.980Z,52.50
2023-04-16T03:09:54.718Z,52.60
2023-04-16T03:12:21.493Z,52.60
2023-04-16T03:14:50.211Z,52.50
2023-04-16T03:17:16.912Z,52.60
2023-04-16T03:19:43.693Z,52.40
2023-04-16T03:22:10.446Z,52.40
2023-04-16T03:24:38.227Z,53.50
2023-04-16T03:27:04.989Z,52.50
2023-04-16T03:29:31.950Z,52.60
2023-04-16T03:31:58.753Z,52.60
2023-04-16T03:34:26.665Z,52.50
2023-04-16T03:36:53.434Z,52.60
2023-04-16T03:39:20.570Z,52.60
2023-04-16T03:41:47.414Z,52.70
2023-04-16T03:44:14.516Z,52.90
2023-04-16T03:46:41.868Z,52.80
2023-04-16T03:49:08.902Z,52.80
2023-04-16T03:51:35.839Z,52.80
2023-04-16T03:54:02.943Z,52.70
2023-04-16T03:56:29.882Z,52.70
2023-04-16T03:58:56.721Z,52.70
2023-04-16T04:01:23.554Z,52.70
2023-04-16T04:03:52.126Z,52.80
2023-04-16T04:06:19.030Z,52.70
2023-04-16T04:08:45.785Z,52.70
2023-04-16T04:11:13.814Z,52.70
2023-04-16T04:13:41.406Z,52.70
2023-04-16T04:16:08.408Z,52.70
2023-04-16T04:18:35.157Z,52.70
2023-04-16T04:21:06.307Z,52.80
2023-04-16T04:23:33.980Z,52.60
2023-04-16T04:26:03.730Z,53.70
2023-04-16T04:28:31.361Z,52.70
2023-04-16T04:30:59.556Z,52.70
2023-04-16T04:33:26.617Z,52.80
2023-04-16T04:35:54.350Z,52.70
2023-04-16T04:38:22.323Z,52.80
2023-04-16T04:40:49.765Z,52.80
2023-04-16T04:43:19.813Z,52.80
2023-04-16T04:45:46.751Z,52.70
2023-04-16T04:48:13.838Z,52.80
2023-04-16T04:50:41.472Z,52.80
2023-04-16T04:53:11.548Z,52.90
2023-04-16T04:55:39.094Z,52.90
2023-04-16T04:58:06.885Z,52.90
2023-04-16T05:00:34.729Z,53.00
2023-04-16T05:03:09.688Z,53.10
2023-04-16T05:05:36.664Z,53.10
2023-04-16T05:08:03.569Z,53.00
2023-04-16T05:10:30.355Z,53.10
2023-04-16T05:12:57.122Z,53.10
2023-04-16T05:15:23.903Z,53.10
2023-04-16T05:17:50.699Z,53.10
2023-04-16T05:20:17.494Z,53.00
2023-04-16T05:22:44.285Z,53.00
2023-04-16T05:25:11.023Z,52.90
2023-04-16T05:27:38.335Z,52.90
2023-04-16T05:30:05.743Z,52.80
2023-04-16T05:32:32.673Z,52.80
2023-04-16T05:34:59.601Z,52.80
2023-04-16T05:37:26.394Z,52.80
2023-04-16T05:39:53.197Z,52.90
2023-04-16T05:42:20.087Z,52.90
2023-04-16T05:44:46.828Z,52.90
2023-04-16T05:47:13.631Z,52.90
2023-04-16T05:49:40.528Z,52.90
2023-04-16T05:52:07.509Z,52.80
2023-04-16T05:54:34.310Z,52.80
2023-04-16T05:57:01.926Z,52.70
2023-04-16T05:59:29.341Z,52.70
2023-04-16T06:01:56.773Z,52.70
2023-04-16T06:04:23.666Z,52.70
2023-04-16T06:06:50.667Z,52.70
2023-04-16T06:09:18.315Z,52.60
2023-04-16T06:11:45.540Z,52.60
2023-04-16T06:14:12.310Z,52.70
2023-04-16T06:16:39.219Z,52.80
2023-04-16T06:19:06.030Z,52.70
2023-04-16T06:21:33.464Z,52.50
2023-04-16T06:24:00.742Z,52.30
2023-04-16T06:26:27.527Z,52.20
2023-04-16T06:28:54.354Z,52.10
2023-04-16T06:31:21.161Z,52.00
2023-04-16T06:33:48.176Z,51.80
2023-04-16T06:36:15.092Z,51.80
2023-04-16T06:38:41.990Z,51.70
2023-04-16T06:41:08.998Z,51.60
2023-04-16T06:43:36.088Z,51.50
2023-04-16T06:46:02.836Z,51.40
2023-04-16T06:48:30.077Z,51.30
2023-04-16T06:50:56.933Z,51.20
2023-04-16T06:53:24.168Z,51.20
2023-04-16T06:55:51.390Z,51.10
2023-04-16T06:58:18.152Z,51.10
2023-04-16T07:00:45.500Z,50.90
2023-04-16T07:03:12.582Z,50.90
2023-04-16T07:05:39.443Z,50.70
2023-04-16T07:08:06.264Z,50.70
2023-04-16T07:10:33.085Z,50.60
2023-04-16T07:13:01.607Z,50.60
2023-04-16T07:15:29.207Z,50.70
2023-04-16T07:17:56.017Z,50.50
2023-04-16T07:20:22.936Z,50.40
2023-04-16T07:22:49.872Z,50.30
2023-04-16T07:25:16.681Z,50.30
2023-04-16T07:27:43.478Z,51.20
2023-04-16T07:30:10.726Z,50.20
2023-04-16T07:32:37.842Z,50.20
2023-04-16T07:35:04.971Z,50.00
2023-04-16T07:37:31.805Z,50.00
2023-04-16T07:39:59.871Z,50.00
2023-04-16T07:42:28.176Z,50.00
2023-04-16T07:44:55.655Z,51.00
2023-04-16T07:47:23.246Z,50.00
2023-04-16T07:49:50.662Z,50.00
2023-04-16T07:52:17.483Z,50.00
2023-04-16T07:54:44.263Z,50.10
2023-04-16T07:57:12.248Z,50.00
2023-04-16T07:59:39.010Z,49.80
2023-04-16T08:02:06.293Z,49.70
2023-04-16T08:04:33.399Z,49.60
2023-04-16T08:07:00.558Z,49.50
2023-04-16T08:09:28.539Z,49.50
2023-04-16T08:11:55.468Z,50.50
2023-04-16T08:14:22.210Z,49.40
2023-04-16T08:16:49.441Z,49.40
2023-04-16T08:19:16.181Z,49.30
2023-04-16T08:21:43.299Z,49.30
2023-04-16T08:24:10.212Z,49.20
2023-04-16T08:26:37.010Z,49.20
2023-04-16T08:29:03.772Z,49.20
2023-04-16T08:31:30.717Z,49.10
2023-04-16T08:33:57.534Z,49.00
2023-04-16T08:36:24.277Z,48.90
2023-04-16T08:38:52.275Z,49.00
2023-04-16T08:41:21.727Z,48.90
2023-04-16T08:43:51.083Z,48.90
2023-04-16T08:46:18.190Z,48.80
2023-04-16T08:48:49.104Z,48.70
2023-04-16T08:51:19.355Z,48.80
2023-04-16T08:53:53.235Z,48.70
2023-04-16T08:56:24.569Z,48.60
2023-04-16T08:58:54.757Z,48.50
2023-04-16T09:01:22.221Z,48.40
2023-04-16T09:03:49.902Z,48.50
2023-04-16T09:06:17.473Z,48.50
2023-04-16T09:08:46.202Z,48.50
2023-04-16T09:11:18.166Z,48.30
2023-04-16T09:13:46.999Z,48.20
2023-04-16T09:16:14.944Z,48.30
2023-04-16T09:18:41.890Z,48.20
2023-04-16T09:21:10.817Z,48.10
2023-04-16T09:23:38.753Z,48.10
2023-04-16T09:26:06.213Z,48.00
2023-04-16T09:28:39.970Z,48.00
2023-04-16T09:31:12.813Z,47.80
2023-04-16T09:33:39.695Z,47.80
2023-04-16T09:36:07.580Z,47.80
2023-04-16T09:38:51.331Z,47.60
2023-04-16T09:41:19.025Z,47.60
2023-04-16T09:44:04.309Z,47.60
2023-04-16T09:46:36.406Z,47.50
2023-04-16T09:49:17.158Z,47.40
2023-04-16T09:51:56.020Z,47.50
2023-04-16T09:54:22.815Z,47.40
2023-04-16T09:56:49.558Z,47.40
2023-04-16T09:59:20.504Z,47.40
2023-04-16T10:01:49.326Z,47.30
2023-04-16T10:04:16.938Z,47.30
2023-04-16T10:06:44.157Z,47.30
2023-04-16T10:09:11.312Z,47.30
2023-04-16T10:11:39.371Z,47.20
2023-04-16T10:14:06.236Z,47.40
2023-04-16T10:16:33.896Z,47.30
2023-04-16T10:19:00.917Z,47.20
2023-04-16T10:21:33.832Z,47.20
2023-04-16T10:24:01.782Z,47.10
2023-04-16T10:26:30.564Z,47.10
2023-04-16T10:28:58.679Z,47.00
2023-04-16T10:31:27.226Z,47.00
2023-04-16T10:33:54.445Z,47.00
2023-04-16T10:36:24.874Z,47.10
2023-04-16T10:38:52.692Z,47.20
2023-04-16T10:41:22.510Z,47.90
2023-04-16T10:43:52.870Z,46.90
2023-04-16T10:46:26.857Z,47.00
2023-04-16T10:48:55.318Z,46.90
2023-04-16T10:51:32.985Z,46.90
2023-04-16T10:54:08.679Z,46.90
2023-04-16T10:56:36.730Z,46.90
2023-04-16T10:59:11.339Z,46.90
2023-04-16T11:01:43.639Z,46.90
2023-04-16T11:04:19.617Z,46.80
2023-04-16T11:07:05.587Z,46.70
2023-04-16T11:09:54.451Z,46.70
2023-04-16T11:12:37.319Z,46.70
2023-04-16T11:15:09.570Z,46.70
2023-04-16T11:17:46.711Z,46.70
2023-04-16T11:20:23.711Z,46.70
2023-04-16T11:22:51.838Z,46.70
2023-04-16T11:25:31.827Z,46.70
2023-04-16T11:28:01.728Z,46.70
2023-04-16T11:30:36.400Z,46.70
2023-04-16T11:33:03.693Z,46.70
2023-04-16T11:35:31.101Z,46.70
2023-04-16T11:37:58.092Z,46.60
2023-04-16T11:40:25.305Z,46.70
2023-04-16T11:42:52.064Z,46.80
2023-04-16T11:45:19.498Z,46.70
2023-04-16T11:47:52.156Z,46.80
2023-04-16T11:50:26.280Z,46.70
2023-04-16T11:52:54.999Z,46.70
2023-04-16T11:55:23.098Z,46.70
2023-04-16T11:57:51.315Z,46.70
2023-04-16T12:00:19.145Z,46.70
2023-04-16T12:02:55.325Z,46.70
2023-04-16T12:05:34.713Z,46.70
2023-04-16T12:08:03.364Z,46.60
2023-04-16T12:10:36.567Z,46.60
2023-04-16T12:13:14.512Z,46.60
2023-04-16T12:15:59.413Z,46.50
2023-04-16T12:18:29.357Z,46.50
2023-04-16T12:20:56.304Z,46.40
2023-04-16T12:23:25.240Z,46.40
2023-04-16T12:25:52.753Z,46.30
2023-04-16T12:28:34.203Z,46.20
2023-04-16T12:31:02.375Z,46.20
2023-04-16T12:33:29.800Z,46.20
2023-04-16T12:35:56.849Z,46.30
2023-04-16T12:38:24.610Z,46.30
2023-04-16T12:40:52.009Z,46.30
2023-04-16T12:43:22.112Z,46.30
2023-04-16T12:45:49.405Z,46.30
2023-04-16T12:48:16.237Z,46.30
2023-04-16T12:50:44.265Z,46.30
2023-04-16T12:53:11.644Z,46.30
2023-04-16T12:55:38.487Z,46.30
2023-04-16T12:58:05.339Z,46.30
2023-04-16T13:00:32.758Z,46.20
2023-04-16T13:02:59.688Z,46.20
2023-04-16T13:05:27.199Z,46.30
2023-04-16T13:07:54.212Z,46.30
2023-04-16T13:10:22.236Z,46.20
2023-04-16T13:12:49.178Z,46.20
2023-04-16T13:15:16.139Z,46.30
2023-04-16T13:17:42.985Z,46.10
2023-04-16T13:20:10.530Z,46.20
2023-04-16T13:22:37.554Z,46.10
2023-04-16T13:25:05.016Z,46.10
2023-04-16T13:27:32.557Z,46.10
2023-04-16T13:29:59.346Z,46.10
2023-04-16T13:32:26.422Z,46.00
2023-04-16T13:34:53.358Z,46.10
2023-04-16T13:37:20.252Z,46.00
2023-04-16T13:39:47.329Z,46.00
2023-04-16T13:42:14.153Z,45.90
2023-04-16T13:44:41.068Z,45.90
2023-04-16T13:47:08.114Z,45.80
2023-04-16T13:49:36.174Z,45.80
2023-04-16T13:52:03.576Z,45.70
2023-04-16T13:54:30.435Z,45.80
2023-04-16T13:56:57.280Z,45.80
2023-04-16T13:59:24.078Z,45.70
2023-04-16T14:01:51.500Z,45.80
2023-04-16T14:04:18.611Z,45.60
2023-04-16T14:06:45.557Z,45.60
2023-04-16T14:09:12.496Z,45.50
2023-04-16T14:11:39.492Z,45.50
2023-04-16T14:14:06.491Z,45.40
2023-04-16T14:16:35.147Z,45.40
2023-04-16T14:19:01.963Z,46.50
2023-04-16T14:21:28.773Z,45.40
2023-04-16T14:23:55.853Z,45.50
2023-04-16T14:26:22.902Z,45.40
2023-04-16T14:28:51.028Z,45.40
2023-04-16T14:31:18.080Z,45.30
2023-04-16T14:33:44.914Z,45.20
2023-04-16T14:36:11.867Z,45.20
2023-04-16T14:38:38.759Z,45.10
2023-04-16T14:41:05.803Z,45.00
2023-04-16T14:43:32.621Z,45.10
2023-04-16T14:45:59.962Z,45.00
2023-04-16T14:48:26.784Z,45.00
2023-04-16T14:50:53.991Z,45.20
2023-04-16T14:53:23.121Z,45.20
2023-04-16T14:55:49.908Z,45.20
2023-04-16T14:58:16.746Z,45.20
2023-04-16T15:00:43.475Z,45.20
2023-04-16T15:03:10.365Z,45.20
2023-04-16T15:05:37.253Z,45.30
2023-04-16T15:08:05.461Z,45.30
2023-04-16T15:10:32.775Z,45.20
2023-04-16T15:12:59.526Z,45.10
2023-04-16T15:15:26.357Z,45.10
2023-04-16T15:17:53.245Z,45.00
2023-04-16T15:20:20.138Z,45.00
2023-04-16T15:22:46.962Z,45.00
2023-04-16T15:25:14.461Z,44.90
2023-04-16T15:27:41.301Z,44.80
2023-04-16T15:30:08.756Z,44.60
2023-04-16T15:32:35.849Z,44.50
2023-04-16T15:35:03.558Z,44.50
2023-04-16T15:37:30.941Z,44.50
2023-04-16T15:39:57.906Z,44.50
2023-04-16T15:42:24.949Z,44.50
2023-04-16T15:44:51.695Z,44.60
2023-04-16T15:47:18.531Z,44.40
2023-04-16T15:49:45.548Z,44.40
2023-04-16T15:52:12.520Z,45.40
2023-04-16T15:54:39.385Z,44.50
2023-04-16T15:57:06.429Z,44.40
2023-04-16T15:59:33.345Z,44.50
2023-04-16T16:02:01.065Z,44.50
2023-04-16T16:04:28.272Z,44.50
2023-04-16T16:06:56.287Z,44.50
2023-04-16T16:09:26.505Z,44.50
2023-04-16T16:11:54.439Z,44.50
2023-04-16T16:14:22.277Z,44.50
2023-04-16T16:16:49.050Z,44.50
2023-04-16T16:19:15.843Z,44.60
2023-04-16T16:21:43.210Z,44.60
2023-04-16T16:24:09.957Z,44.50
2023-04-16T16:26:36.734Z,44.50
2023-04-16T16:29:03.710Z,44.50
2023-04-16T16:31:31.909Z,44.50
2023-04-16T16:33:58.796Z,44.60
2023-04-16T16:36:26.120Z,44.50
2023-04-16T16:38:52.976Z,44.50
2023-04-16T16:41:19.776Z,44.50
2023-04-16T16:43:46.664Z,44.70
2023-04-16T16:46:13.604Z,44.80
2023-04-16T16:48:40.462Z,44.80
2023-04-16T16:51:10.569Z,44.80
2023-04-16T16:53:37.347Z,44.80
2023-04-16T16:56:04.291Z,44.90
2023-04-16T16:58:31.476Z,44.90
2023-04-16T17:00:58.801Z,45.00
2023-04-16T17:03:26.153Z,45.00
2023-04-16T17:05:53.150Z,45.00
2023-04-16T17:08:19.940Z,45.10
2023-04-16T17:10:46.834Z,45.10
2023-04-16T17:13:15.127Z,45.10
2023-04-16T17:15:42.103Z,45.10
2023-04-16T17:18:08.911Z,45.10
2023-04-16T17:20:35.755Z,45.10
2023-04-16T17:23:03.024Z,45.10
2023-04-16T17:25:29.961Z,45.20
2023-04-16T17:27:56.691Z,45.20
2023-04-16T17:30:25.840Z,45.20
2023-04-16T17:32:52.724Z,45.30
2023-04-16T17:35:19.724Z,46.30
2023-04-16T17:37:46.466Z,45.20
2023-04-16T17:40:15.455Z,45.20
2023-04-16T17:42:42.646Z,45.30
2023-04-16T17:45:09.716Z,45.30
2023-04-16T17:47:36.655Z,45.30
2023-04-16T17:50:04.524Z,45.30
2023-04-16T17:52:31.357Z,45.40
2023-04-16T17:55:01.267Z,45.50
2023-04-16T17:57:28.490Z,45.50
2023-04-16T17:59:55.486Z,45.60
2023-04-16T18:02:22.715Z,45.70
2023-04-16T18:04:49.742Z,45.80
2023-04-16T18:07:16.841Z,46.10
2023-04-16T18:09:43.694Z,46.10
2023-04-16T18:12:10.453Z,46.20
2023-04-16T18:14:38.800Z,46.30
2023-04-16T18:17:06.474Z,46.50
2023-04-16T18:19:33.585Z,46.60
2023-04-16T18:22:00.671Z,46.80
2023-04-16T18:24:27.593Z,46.80
2023-04-16T18:26:55.314Z,47.00
2023-04-16T18:29:25.089Z,47.20
2023-04-16T18:31:52.483Z,47.20
2023-04-16T18:34:19.443Z,47.30
2023-04-16T18:36:46.329Z,47.40
2023-04-16T18:39:13.213Z,47.40
2023-04-16T18:41:40.884Z,47.50
2023-04-16T18:44:07.828Z,47.60
2023-04-16T18:46:34.660Z,47.70
2023-04-16T18:49:01.548Z,47.70
2023-04-16T18:51:28.485Z,47.80
2023-04-16T18:53:55.616Z,47.90
2023-04-16T18:56:22.376Z,48.00
2023-04-16T18:58:49.544Z,48.00
2023-04-16T19:01:16.643Z,48.10
2023-04-16T19:03:43.565Z,48.10
2023-04-16T19:06:10.505Z,48.20
2023-04-16T19:08:37.266Z,48.20
2023-04-16T19:11:04.104Z,48.20
2023-04-16T19:13:32.256Z,48.30
2023-04-16T19:16:00.403Z,48.30
2023-04-16T19:18:27.379Z,48.40
2023-04-16T19:21:01.150Z,49.40
2023-04-16T19:23:28.466Z,48.50
2023-04-16T19:25:57.011Z,48.60
2023-04-16T19:28:24.804Z,48.60
2023-04-16T19:30:52.452Z,48.50
2023-04-16T19:33:19.704Z,48.60
2023-04-16T19:35:47.051Z,48.70
2023-04-16T19:38:14.063Z,48.70
2023-04-16T19:40:43.507Z,48.70
2023-04-16T19:43:10.365Z,48.80
2023-04-16T19:45:53.166Z,48.70
2023-04-16T19:48:20.503Z,48.80
2023-04-16T19:50:47.765Z,48.90
2023-04-16T19:53:14.609Z,48.90
2023-04-16T19:55:41.944Z,49.00
2023-04-16T19:58:09.631Z,49.00
2023-04-16T20:00:37.788Z,49.20
2023-04-16T20:03:05.551Z,49.20
2023-04-16T20:05:32.560Z,50.20
2023-04-16T20:07:59.544Z,49.30
2023-04-16T20:10:27.055Z,49.40
2023-04-16T20:12:53.803Z,49.40
2023-04-16T20:15:20.848Z,49.40
2023-04-16T20:17:47.710Z,49.40
2023-04-16T20:20:15.866Z,49.60
2023-04-16T20:22:43.717Z,49.60
2023-04-16T20:25:10.842Z,49.60
2023-04-16T20:27:37.877Z,49.60
2023-04-16T20:30:06.277Z,49.60
2023-04-16T20:32:33.238Z,49.60
2023-04-16T20:35:00.213Z,49.50
2023-04-16T20:37:28.977Z,49.60
2023-04-16T20:39:56.276Z,49.70
2023-04-16T20:42:26.124Z,49.80
2023-04-16T20:44:56.479Z,49.80
2023-04-16T20:47:23.849Z,49.80
2023-04-16T20:49:52.784Z,49.80
2023-04-16T20:52:20.085Z,49.80
2023-04-16T20:54:47.674Z,50.00
2023-04-16T20:57:14.638Z,50.10
2023-04-16T20:59:41.475Z,50.10
2023-04-16T21:02:08.359Z,50.10
2023-04-16T21:04:35.423Z,50.20
2023-04-16T21:07:04.193Z,50.20
2023-04-16T21:09:31.460Z,50.30
2023-04-16T21:11:58.351Z,50.40
2023-04-16T21:14:25.238Z,50.40
2023-04-16T21:16:52.146Z,50.40
2023-04-16T21:19:18.993Z,50.50
2023-04-16T21:21:45.907Z,50.60
2023-04-16T21:24:12.667Z,50.70
2023-04-16T21:26:39.440Z,50.70
2023-04-16T21:29:06.330Z,50.70
2023-04-16T21:31:33.166Z,50.70
2023-04-16T21:34:00.016Z,50.70
2023-04-16T21:36:27.726Z,50.80
2023-04-16T21:38:54.475Z,50.80
2023-04-16T21:41:21.241Z,50.80
2023-04-16T21:43:47.973Z,50.90
2023-04-16T21:46:14.849Z,50.90
2023-04-16T21:48:41.648Z,50.90
2023-04-16T21:51:08.624Z,51.00
2023-04-16T21:53:35.443Z,51.00
2023-04-16T21:56:02.387Z,51.20
2023-04-16T21:58:29.288Z,51.10
2023-04-16T22:00:56.286Z,51.10
2023-04-16T22:03:28.066Z,51.10
2023-04-16T22:06:01.663Z,51.20
2023-04-16T22:08:32.032Z,51.20
2023-04-16T22:10:59.885Z,51.30
2023-04-16T22:13:28.270Z,51.30
2023-04-16T22:15:55.171Z,51.30
2023-04-16T22:18:24.278Z,51.30
2023-04-16T22:20:54.773Z,51.40
2023-04-16T22:23:25.719Z,51.40
2023-04-16T22:25:54.608Z,51.30
2023-04-16T22:28:21.542Z,51.40
2023-04-16T22:30:48.628Z,51.40
2023-04-16T22:33:15.613Z,51.40
2023-04-16T22:35:42.530Z,51.50
2023-04-16T22:38:10.028Z,51.50
2023-04-16T22:40:36.819Z,51.60
2023-04-16T22:43:03.573Z,51.60
2023-04-16T22:45:30.378Z,51.70
2023-04-16T22:47:57.156Z,51.70
2023-04-16T22:50:23.936Z,51.80
2023-04-16T22:52:50.698Z,51.90
2023-04-16T22:55:17.449Z,52.00
2023-04-16T22:57:44.172Z,51.90
2023-04-16T23:00:15.861Z,52.90
2023-04-16T23:02:43.227Z,52.00
2023-04-16T23:05:10.735Z,52.00
2023-04-16T23:07:37.659Z,52.00
2023-04-16T23:10:04.850Z,52.10
2023-04-16T23:12:31.588Z,52.20
2023-04-16T23:14:59.914Z,52.10
2023-04-16T23:17:27.128Z,52.10
2023-04-16T23:19:53.900Z,52.10
2023-04-16T23:22:20.760Z,52.10
2023-04-16T23:24:47.465Z,52.10
2023-04-16T23:27:14.242Z,52.10
2023-04-16T23:29:41.058Z,52.20
2023-04-16T23:32:07.819Z,52.20
2023-04-16T23:34:34.609Z,52.20
2023-04-16T23:37:01.394Z,52.20
2023-04-16T23:39:28.106Z,52.20
2023-04-16T23:41:54.880Z,52.20
2023-04-16T23:44:21.600Z,52.20
2023-04-16T23:46:48.468Z,52.20
2023-04-16T23:49:15.339Z,52.20
2023-04-16T23:51:42.078Z,52.30
2023-04-16T23:54:08.875Z,52.50
2023-04-16T23:56:35.614Z,52.50
2023-04-16T23:59:02.418Z,52.50
